createdAt,value
2023-12-30T00:02:39.843Z,6.7
2023-12-30T00:12:43.472Z,6.8
2023-12-30T00:22:40.108Z,6.9
2023-12-30T00:32:39.911Z,6.8
2023-12-30T00:42:39.744Z,6.9
2023-12-30T00:52:40.045Z,7.1
2023-12-30T01:02:39.799Z,7.1
2023-12-30T01:12:39.707Z,6.9
2023-12-30T01:22:40.317Z,6.7
2023-12-30T01:32:51.021Z,6.4
2023-12-30T01:52:39.987Z,6.2
2023-12-30T02:02:39.670Z,6.2
2023-12-30T02:12:39.670Z,6.4
2023-12-30T02:22:39.849Z,6.4
2023-12-30T02:32:39.739Z,6.4
2023-12-30T02:42:46.163Z,6.4
2023-12-30T02:52:39.811Z,6.3
2023-12-30T03:02:47.238Z,6.1
2023-12-30T03:12:39.624Z,5.9
2023-12-30T03:22:39.636Z,5.9
2023-12-30T03:32:39.890Z,6
2023-12-30T03:42:39.642Z,5.9
2023-12-30T03:52:39.642Z,5.7
2023-12-30T04:02:39.594Z,5.4
2023-12-30T04:12:39.733Z,5
2023-12-30T04:22:39.576Z,4.9
2023-12-30T04:32:39.833Z,4.8
2023-12-30T04:42:39.557Z,4.6
2023-12-30T04:52:39.591Z,4.4
2023-12-30T05:02:40.438Z,4.6
2023-12-30T05:12:39.702Z,4.7
2023-12-30T05:22:39.531Z,4.7
2023-12-30T05:32:39.730Z,4.5
2023-12-30T05:42:39.547Z,4.3
2023-12-30T05:52:39.509Z,4.9
2023-12-30T06:02:39.733Z,5
2023-12-30T06:12:39.469Z,4.8
2023-12-30T06:22:39.947Z,4.8
2023-12-30T06:32:39.733Z,4.4
2023-12-30T06:42:39.452Z,4.1
2023-12-30T06:52:39.512Z,3.8
2023-12-30T07:02:39.466Z,3.9
2023-12-30T07:12:39.434Z,3.7
2023-12-30T07:22:39.500Z,3.5
2023-12-30T07:32:39.539Z,3.7
2023-12-30T07:42:39.394Z,3.9
2023-12-30T08:02:40.114Z,4.1
2023-12-30T08:12:46.603Z,6.3
2023-12-30T08:32:39.983Z,11.5
2023-12-30T08:42:39.368Z,13.8
2023-12-30T08:52:39.381Z,15.4
2023-12-30T09:02:39.490Z,16.2
2023-12-30T09:12:39.730Z,15.6
2023-12-30T09:22:39.969Z,16.7
2023-12-30T09:32:39.384Z,16.2
2023-12-30T09:42:39.674Z,15.8
2023-12-30T09:52:39.734Z,15.5
2023-12-30T10:02:39.288Z,15
2023-12-30T10:12:39.188Z,16.3
2023-12-30T10:22:39.284Z,18.2
2023-12-30T10:32:39.736Z,20
2023-12-30T10:42:39.367Z,19.4
2023-12-30T10:52:39.416Z,18.5
2023-12-30T11:02:39.341Z,17.2
2023-12-30T11:12:39.109Z,15.6
2023-12-30T11:22:39.241Z,15
2023-12-30T11:32:40.655Z,14.3
2023-12-30T11:42:45.557Z,13.7
2023-12-30T11:52:39.484Z,13.2
2023-12-30T12:02:39.180Z,13
2023-12-30T12:12:39.032Z,13
2023-12-30T12:22:39.617Z,13.1
2023-12-30T12:32:39.115Z,13.3
2023-12-30T12:42:39.051Z,13.6
2023-12-30T12:52:39.081Z,13.5
2023-12-30T13:02:46.973Z,13.9
2023-12-30T13:12:38.972Z,14.3
2023-12-30T13:22:39.415Z,14.3
2023-12-30T13:32:39.048Z,14.4
2023-12-30T13:42:39.249Z,14.9
2023-12-30T13:52:39.240Z,16.4
2023-12-30T14:02:38.943Z,16
2023-12-30T14:12:39.007Z,14.2
2023-12-30T14:22:38.971Z,12.7
2023-12-30T14:32:39.069Z,11.7
2023-12-30T14:42:38.834Z,11
2023-12-30T14:52:39.071Z,10.6
2023-12-30T15:02:46.046Z,10.3
2023-12-30T15:12:39.396Z,10.1
2023-12-30T15:22:41.013Z,9.8
2023-12-30T15:32:39.368Z,9.5
2023-12-30T15:42:38.973Z,9.4
2023-12-30T15:52:38.893Z,9.3
2023-12-30T16:02:39.010Z,9.2
2023-12-30T16:12:38.765Z,9
2023-12-30T16:22:39.476Z,8.9
2023-12-30T16:32:38.843Z,8.9
2023-12-30T16:42:38.743Z,8.9
2023-12-30T16:52:39.593Z,8.7
2023-12-30T17:02:38.887Z,8.6
2023-12-30T17:12:38.708Z,8.5
2023-12-30T17:22:39.011Z,8.4
2023-12-30T17:32:38.684Z,8.4
2023-12-30T17:42:38.619Z,8.4
2023-12-30T17:52:39.394Z,8.2
2023-12-30T18:02:39.415Z,7.9
2023-12-30T18:12:39.028Z,7.8
2023-12-30T18:22:38.663Z,7.7
2023-12-30T18:32:51.712Z,7.7
2023-12-30T18:42:38.635Z,7.5
2023-12-30T18:52:38.613Z,7.5
2023-12-30T19:02:38.627Z,7.6
2023-12-30T19:12:38.529Z,7.4
2023-12-30T19:22:38.633Z,7.5
2023-12-30T19:32:38.607Z,7.7
2023-12-30T19:42:38.958Z,7.5
2023-12-30T19:52:38.590Z,7.4
2023-12-30T20:02:39.212Z,7.4
2023-12-30T20:12:38.515Z,7.3
2023-12-30T20:22:38.740Z,7.4
2023-12-30T20:32:38.888Z,7.4
2023-12-30T20:42:38.879Z,7.2
2023-12-30T20:52:38.861Z,7.1
2023-12-30T21:02:38.508Z,6.8
2023-12-30T21:12:38.459Z,6.6
2023-12-30T21:22:39.383Z,6.4
2023-12-30T21:32:38.594Z,6.1
2023-12-30T21:42:38.421Z,6.1
2023-12-30T21:52:39.673Z,6.1
2023-12-30T22:02:47.028Z,5.6
2023-12-30T22:12:46.451Z,5.5
2023-12-30T22:22:38.420Z,5.8
2023-12-30T22:32:38.640Z,5.7
2023-12-30T22:42:38.984Z,5.5
2023-12-30T22:52:38.450Z,5.2
2023-12-30T23:02:38.407Z,5.1
2023-12-30T23:12:38.369Z,5.1
2023-12-30T23:22:38.360Z,4.8
2023-12-30T23:32:38.372Z,4.8
2023-12-30T23:42:38.308Z,4.6
2023-12-30T23:52:38.578Z,4.6
